Private Wetterstation Sandau
Wetterdaten: Freitag, 13.07.2012
Datum Zeit Temp. A. Feuchte A. Luftdruck Regen Wind Richtung Richtung Taupunkt Windchill
13.07.2012 00:01 13,5 C 80 % 1013,9 hPa 0,0 l/m 11,9 km/h (2 Bft) W-SW 247 10,1 C 13,5 C
13.07.2012 00:06 13,4 C 81 % 1013,8 hPa 0,0 l/m 15,5 km/h (3 Bft) W-SW 247 10,2 C 13,4 C
13.07.2012 00:11 13,3 C 81 % 1013,7 hPa 0,0 l/m 6,1 km/h (2 Bft) SW 225 10,1 C 13,3 C
13.07.2012 00:16 13,3 C 81 % 1013,7 hPa 0,0 l/m 8,6 km/h (2 Bft) SW 225 10,1 C 13,3 C
13.07.2012 00:21 13,2 C 81 % 1013,7 hPa 0,0 l/m 4,7 km/h (1 Bft) SW 225 10,0 C 13,2 C
13.07.2012 00:26 13,1 C 81 % 1013,8 hPa 0,0 l/m 10,1 km/h (2 Bft) W 270 9,9 C 13,1 C
13.07.2012 00:31 12,9 C 81 % 1013,7 hPa 0,0 l/m 4,0 km/h (1 Bft) SW 225 9,7 C 12,9 C
13.07.2012 00:36 12,9 C 82 % 1013,8 hPa 0,0 l/m 2,9 km/h (1 Bft) W-SW 247 9,9 C 12,9 C
13.07.2012 00:41 12,8 C 82 % 1013,6 hPa 0,0 l/m 6,1 km/h (2 Bft) W-SW 247 9,8 C 12,8 C
13.07.2012 00:46 12,8 C 82 % 1013,8 hPa 0,0 l/m 4,0 km/h (1 Bft) W-SW 247 9,8 C 12,8 C
13.07.2012 00:51 12,6 C 83 % 1013,6 hPa 0,0 l/m 3,6 km/h (1 Bft) S-SW 202 9,8 C 12,6 C
13.07.2012 00:56 12,6 C 83 % 1013,7 hPa 0,0 l/m 2,2 km/h (1 Bft) S-SW 202 9,8 C 12,6 C
13.07.2012 01:01 12,6 C 83 % 1013,5 hPa 0,0 l/m 2,9 km/h (1 Bft) S-SW 202 9,8 C 12,6 C
13.07.2012 01:06 12,5 C 83 % 1013,5 hPa 0,0 l/m 2,9 km/h (1 Bft) W-SW 247 9,7 C 12,5 C
13.07.2012 01:11 12,4 C 84 % 1013,5 hPa 0,0 l/m 3,2 km/h (1 Bft) S-SW 202 9,8 C 12,4 C
13.07.2012 01:16 12,4 C 84 % 1013,5 hPa 0,0 l/m 2,9 km/h (1 Bft) W-SW 247 9,8 C 12,4 C
13.07.2012 01:21 12,4 C 84 % 1013,5 hPa 0,0 l/m 4,3 km/h (1 Bft) S 180 9,8 C 12,4 C
13.07.2012 01:26 12,3 C 84 % 1013,5 hPa 0,0 l/m 5,4 km/h (1 Bft) S 180 9,7 C 12,3 C
13.07.2012 01:31 12,2 C 84 % 1013,4 hPa 0,0 l/m 2,9 km/h (1 Bft) S-SW 202 9,6 C 12,2 C
13.07.2012 01:36 12,1 C 84 % 1013,5 hPa 0,0 l/m 2,2 km/h (1 Bft) S 180 9,5 C 12,1 C
13.07.2012 01:41 12,1 C 84 % 1013,5 hPa 0,0 l/m 4,7 km/h (1 Bft) S 180 9,5 C 12,1 C
13.07.2012 01:46 12,0 C 84 % 1013,4 hPa 0,0 l/m 2,9 km/h (1 Bft) S-SO 157 9,4 C 12,0 C
13.07.2012 01:51 11,9 C 85 % 1013,2 hPa 0,0 l/m 4,0 km/h (1 Bft) S-SW 202 9,5 C 11,9 C
13.07.2012 01:56 11,9 C 85 % 1013,2 hPa 0,0 l/m 0,0 km/h (0 Bft) S-SO 157 9,5 C 11,9 C
13.07.2012 02:01 11,8 C 85 % 1013,0 hPa 0,0 l/m 0,0 km/h (0 Bft) S-SO 157 9,4 C 11,8 C
13.07.2012 02:06 11,8 C 85 % 1013,0 hPa 0,0 l/m 2,5 km/h (1 Bft) S-SO 157 9,4 C 11,8 C
13.07.2012 02:11 11,6 C 85 % 1013,0 hPa 0,0 l/m 0,0 km/h (0 Bft) S-SO 157 9,2 C 11,6 C
13.07.2012 02:16 11,5 C 85 % 1012,9 hPa 0,0 l/m 2,5 km/h (1 Bft) S-SO 157 9,1 C 11,5 C
13.07.2012 02:21 11,5 C 86 % 1012,9 hPa 0,0 l/m 3,6 km/h (1 Bft) S-SO 157 9,2 C 11,5 C
13.07.2012 02:26 11,4 C 86 % 1012,8 hPa 0,0 l/m 3,2 km/h (1 Bft) S-SO 157 9,1 C 11,4 C
13.07.2012 02:31 11,3 C 86 % 1012,8 hPa 0,0 l/m 3,6 km/h (1 Bft) S-SO 157 9,0 C 11,3 C
13.07.2012 02:36 11,3 C 86 % 1012,7 hPa 0,0 l/m 0,0 km/h (0 Bft) S-SO 157 9,0 C 11,3 C
13.07.2012 02:41 11,2 C 86 % 1012,7 hPa 0,0 l/m 4,7 km/h (1 Bft) S-SW 202 8,9 C 11,2 C
13.07.2012 02:46 11,1 C 86 % 1012,7 hPa 0,0 l/m 7,2 km/h (2 Bft) S-SO 157 8,8 C 11,1 C
13.07.2012 02:51 11,1 C 87 % 1012,7 hPa 0,0 l/m 4,0 km/h (1 Bft) S-SW 202 9,0 C 11,1 C
13.07.2012 02:56 11,0 C 87 % 1012,6 hPa 0,0 l/m 4,0 km/h (1 Bft) S 180 8,9 C 11,0 C
13.07.2012 03:01 11,0 C 87 % 1012,6 hPa 0,0 l/m 5,8 km/h (2 Bft) S 180 8,9 C 11,0 C
13.07.2012 03:06 11,0 C 87 % 1012,6 hPa 0,0 l/m 7,6 km/h (2 Bft) S 180 8,9 C 11,0 C
13.07.2012 03:11 11,1 C 87 % 1012,5 hPa 0,0 l/m 2,5 km/h (1 Bft) S-SO 157 9,0 C 11,1 C
13.07.2012 03:16 11,1 C 88 % 1012,5 hPa 0,0 l/m 3,2 km/h (1 Bft) S-SO 157 9,2 C 11,1 C
13.07.2012 03:21 11,1 C 88 % 1012,4 hPa 0,0 l/m 2,5 km/h (1 Bft) S-SW 202 9,2 C 11,1 C
13.07.2012 03:26 11,1 C 88 % 1012,3 hPa 0,0 l/m 6,1 km/h (2 Bft) S 180 9,2 C 11,1 C
13.07.2012 03:31 11,2 C 88 % 1012,4 hPa 0,0 l/m 7,6 km/h (2 Bft) S-SO 157 9,3 C 11,2 C
13.07.2012 03:36 11,1 C 87 % 1012,2 hPa 0,0 l/m 3,6 km/h (1 Bft) S-SO 157 9,0 C 11,1 C
13.07.2012 03:41 11,1 C 87 % 1012,3 hPa 0,0 l/m 4,7 km/h (1 Bft) S-SO 157 9,0 C 11,1 C
13.07.2012 03:46 11,0 C 87 % 1012,1 hPa 0,0 l/m 4,0 km/h (1 Bft) S 180 8,9 C 11,0 C
13.07.2012 03:51 10,9 C 88 % 1012,1 hPa 0,0 l/m 5,0 km/h (1 Bft) SW 225 9,0 C 10,9 C
13.07.2012 03:56 10,8 C 88 % 1012,0 hPa 0,0 l/m 4,0 km/h (1 Bft) S-SO 157 8,9 C 10,8 C
13.07.2012 04:01 10,8 C 88 % 1012,1 hPa 0,0 l/m 3,2 km/h (1 Bft) S-SO 157 8,9 C 10,8 C
13.07.2012 04:06 10,8 C 88 % 1012,2 hPa 0,0 l/m 1,4 km/h (1 Bft) S-SW 202 8,9 C 10,8 C
13.07.2012 04:11 10,6 C 88 % 1012,1 hPa 0,0 l/m 2,2 km/h (1 Bft) S-SW 202 8,7 C 10,6 C
13.07.2012 04:16 10,6 C 88 % 1012,0 hPa 0,0 l/m 4,3 km/h (1 Bft) S-SO 157 8,7 C 10,6 C
13.07.2012 04:21 10,6 C 88 % 1012,0 hPa 0,0 l/m 2,2 km/h (1 Bft) S-SO 157 8,7 C 10,6 C
13.07.2012 04:26 10,6 C 88 % 1012,0 hPa 0,0 l/m 3,2 km/h (1 Bft) S-SO 157 8,7 C 10,6 C
13.07.2012 04:31 10,5 C 88 % 1011,9 hPa 0,0 l/m 2,5 km/h (1 Bft) SO 135 8,6 C 10,5 C
13.07.2012 04:36 10,5 C 88 % 1011,9 hPa 0,0 l/m 2,9 km/h (1 Bft) S-SO 157 8,6 C 10,5 C
13.07.2012 04:41 10,4 C 88 % 1011,9 hPa 0,0 l/m 3,2 km/h (1 Bft) S-SO 157 8,5 C 10,4 C
13.07.2012 04:46 10,4 C 88 % 1011,9 hPa 0,0 l/m 4,3 km/h (1 Bft) S 180 8,5 C 10,4 C
13.07.2012 04:51 10,4 C 88 % 1011,8 hPa 0,0 l/m 5,8 km/h (2 Bft) SW 225 8,5 C 10,4 C
13.07.2012 04:56 10,3 C 88 % 1011,7 hPa 0,0 l/m 3,6 km/h (1 Bft) S 180 8,4 C 10,3 C
13.07.2012 05:01 10,4 C 88 % 1011,7 hPa 0,0 l/m 6,5 km/h (2 Bft) S 180 8,5 C 10,4 C
13.07.2012 05:06 10,4 C 88 % 1011,7 hPa 0,0 l/m 6,1 km/h (2 Bft) SO 135 8,5 C 10,4 C
13.07.2012 05:11 10,4 C 88 % 1011,5 hPa 0,0 l/m 5,8 km/h (2 Bft) W-SW 247 8,5 C 10,4 C
13.07.2012 05:16 10,4 C 88 % 1011,5 hPa 0,0 l/m 8,3 km/h (2 Bft) SO 135 8,5 C 10,4 C
13.07.2012 05:21 10,4 C 88 % 1011,5 hPa 0,0 l/m 13,3 km/h (3 Bft) S-SO 157 8,5 C 10,4 C
13.07.2012 05:26 10,5 C 88 % 1011,5 hPa 0,0 l/m 5,4 km/h (1 Bft) SO 135 8,6 C 10,5 C
13.07.2012 05:31 10,6 C 88 % 1011,5 hPa 0,0 l/m 6,8 km/h (2 Bft) S-SO 157 8,7 C 10,6 C
13.07.2012 05:36 10,8 C 87 % 1011,6 hPa 0,0 l/m 4,7 km/h (1 Bft) S-SW 202 8,7 C 10,8 C
13.07.2012 05:41 10,8 C 87 % 1011,5 hPa 0,0 l/m 6,5 km/h (2 Bft) S-SO 157 8,7 C 10,8 C
13.07.2012 05:46 10,8 C 87 % 1011,4 hPa 0,0 l/m 5,0 km/h (1 Bft) S-SW 202 8,7 C 10,8 C
13.07.2012 05:51 10,8 C 87 % 1011,4 hPa 0,0 l/m 12,2 km/h (2 Bft) S 180 8,7 C 10,8 C
13.07.2012 05:56 10,9 C 86 % 1011,4 hPa 0,0 l/m 2,9 km/h (1 Bft) S-SW 202 8,7 C 10,9 C
13.07.2012 06:01 10,9 C 86 % 1011,4 hPa 0,0 l/m 9,7 km/h (2 Bft) S-SO 157 8,7 C 10,9 C
13.07.2012 06:06 11,1 C 86 % 1011,4 hPa 0,0 l/m 1,4 km/h (1 Bft) S-SO 157 8,8 C 11,1 C
13.07.2012 06:11 11,5 C 86 % 1011,4 hPa 0,0 l/m 5,0 km/h (1 Bft) SO 135 9,2 C 11,5 C
13.07.2012 06:16 12,1 C 84 % 1011,3 hPa 0,0 l/m 6,1 km/h (2 Bft) S-SW 202 9,5 C 12,1 C
13.07.2012 06:21 12,4 C 83 % 1011,3 hPa 0,0 l/m 1,8 km/h (1 Bft) S 180 9,6 C 12,4 C
13.07.2012 06:26 12,4 C 83 % 1011,3 hPa 0,0 l/m 2,5 km/h (1 Bft) S 180 9,6 C 12,4 C
13.07.2012 06:31 12,5 C 82 % 1011,3 hPa 0,0 l/m 5,4 km/h (1 Bft) S-SO 157 9,5 C 12,5 C
13.07.2012 06:36 12,6 C 81 % 1011,2 hPa 0,0 l/m 1,4 km/h (1 Bft) S 180 9,4 C 12,6 C
13.07.2012 06:41 12,6 C 81 % 1011,1 hPa 0,0 l/m 5,8 km/h (2 Bft) SO 135 9,4 C 12,6 C
13.07.2012 06:46 12,5 C 81 % 1011,1 hPa 0,0 l/m 1,4 km/h (1 Bft) W-NW 292 9,3 C 12,5 C
13.07.2012 06:51 12,5 C 81 % 1011,1 hPa 0,0 l/m 0,0 km/h (0 Bft) S-SO 157 9,3 C 12,5 C
13.07.2012 06:56 12,4 C 81 % 1010,9 hPa 0,0 l/m 2,2 km/h (1 Bft) S 180 9,2 C 12,4 C
13.07.2012 07:01 12,5 C 81 % 1010,7 hPa 0,0 l/m 2,9 km/h (1 Bft) SO 135 9,3 C 12,5 C
13.07.2012 07:06 12,6 C 81 % 1010,7 hPa 0,0 l/m 5,4 km/h (1 Bft) S-SO 157 9,4 C 12,6 C
13.07.2012 07:11 12,6 C 81 % 1010,6 hPa 0,0 l/m 3,2 km/h (1 Bft) SO 135 9,4 C 12,6 C
13.07.2012 07:16 12,9 C 81 % 1010,4 hPa 0,0 l/m 2,5 km/h (1 Bft) S-SO 157 9,7 C 12,9 C
13.07.2012 07:21 13,1 C 80 % 1010,6 hPa 0,0 l/m 5,0 km/h (1 Bft) SO 135 9,7 C 13,1 C
13.07.2012 07:26 13,4 C 80 % 1010,5 hPa 0,0 l/m 4,0 km/h (1 Bft) SO 135 10,0 C 13,4 C
13.07.2012 07:31 13,6 C 78 % 1010,5 hPa 0,0 l/m 4,0 km/h (1 Bft) S-SO 157 9,8 C 13,6 C
13.07.2012 07:36 13,9 C 78 % 1010,4 hPa 0,0 l/m 0,0 km/h (0 Bft) S-SO 157 10,1 C 13,9 C
13.07.2012 07:41 14,1 C 77 % 1010,4 hPa 0,0 l/m 5,0 km/h (1 Bft) SO 135 10,1 C 14,1 C
13.07.2012 07:46 14,0 C 76 % 1010,3 hPa 0,0 l/m 2,5 km/h (1 Bft) S-SO 157 9,8 C 14,0 C
13.07.2012 07:51 14,0 C 76 % 1010,3 hPa 0,0 l/m 4,3 km/h (1 Bft) O-SO 112 9,8 C 14,0 C
13.07.2012 07:56 14,1 C 76 % 1010,3 hPa 0,0 l/m 8,3 km/h (2 Bft) SO 135 9,9 C 14,1 C
13.07.2012 08:01 14,1 C 76 % 1010,2 hPa 0,0 l/m 4,0 km/h (1 Bft) S 180 9,9 C 14,1 C
13.07.2012 08:06 14,1 C 76 % 1010,3 hPa 0,0 l/m 4,7 km/h (1 Bft) S-SO 157 9,9 C 14,1 C
13.07.2012 08:11 14,2 C 76 % 1010,2 hPa 0,0 l/m 6,5 km/h (2 Bft) S 180 10,0 C 14,2 C
13.07.2012 08:16 14,3 C 76 % 1010,1 hPa 0,0 l/m 5,8 km/h (2 Bft) S 180 10,1 C 14,3 C
13.07.2012 08:21 14,4 C 75 % 1010,1 hPa 0,0 l/m 6,5 km/h (2 Bft) S-SW 202 10,0 C 14,4 C
13.07.2012 08:26 14,4 C 76 % 1010,1 hPa 0,0 l/m 5,8 km/h (2 Bft) S-SO 157 10,2 C 14,4 C
13.07.2012 08:31 14,6 C 75 % 1010,1 hPa 0,0 l/m 7,6 km/h (2 Bft) S-SO 157 10,2 C 14,6 C
13.07.2012 08:36 14,8 C 75 % 1010,0 hPa 0,0 l/m 0,0 km/h (0 Bft) SO 135 10,4 C 14,8 C
13.07.2012 08:41 14,9 C 75 % 1010,0 hPa 0,0 l/m 8,3 km/h (2 Bft) S-SO 157 10,5 C 14,9 C
13.07.2012 08:46 15,1 C 74 % 1010,1 hPa 0,0 l/m 0,0 km/h (0 Bft) S-SO 157 10,5 C 15,1 C
13.07.2012 08:51 15,2 C 74 % 1009,9 hPa 0,0 l/m 3,2 km/h (1 Bft) SO 135 10,6 C 15,2 C
13.07.2012 08:56 15,3 C 74 % 1009,9 hPa 0,0 l/m 6,1 km/h (2 Bft) S-SW 202 10,7 C 15,3 C
13.07.2012 09:01 15,3 C 73 % 1009,8 hPa 0,0 l/m 13,3 km/h (3 Bft) S 180 10,5 C 15,3 C
13.07.2012 09:06 15,1 C 74 % 1009,9 hPa 0,0 l/m 10,8 km/h (2 Bft) S 180 10,5 C 15,1 C
13.07.2012 09:11 15,3 C 74 % 1009,8 hPa 0,0 l/m 5,4 km/h (1 Bft) S-SW 202 10,7 C 15,3 C
13.07.2012 09:16 15,4 C 74 % 1009,8 hPa 0,0 l/m 12,2 km/h (2 Bft) S-SO 157 10,8 C 15,4 C
13.07.2012 09:21 15,5 C 73 % 1009,6 hPa 0,0 l/m 4,0 km/h (1 Bft) S 180 10,7 C 15,5 C
13.07.2012 09:26 15,5 C 73 % 1009,5 hPa 0,0 l/m 10,1 km/h (2 Bft) SO 135 10,7 C 15,5 C
13.07.2012 09:31 15,6 C 73 % 1009,5 hPa 0,0 l/m 3,2 km/h (1 Bft) S 180 10,8 C 15,6 C
13.07.2012 09:36 15,8 C 73 % 1009,5 hPa 0,0 l/m 0,0 km/h (0 Bft) W-NW 292 11,0 C 15,8 C
13.07.2012 09:41 15,9 C 73 % 1009,5 hPa 0,0 l/m 5,8 km/h (2 Bft) S-SO 157 11,1 C 15,9 C
13.07.2012 09:46 16,1 C 73 % 1009,5 hPa 0,0 l/m 5,4 km/h (1 Bft) S 180 11,3 C 16,1 C
13.07.2012 09:51 16,1 C 73 % 1009,6 hPa 0,0 l/m 6,8 km/h (2 Bft) S-SW 202 11,3 C 16,1 C
13.07.2012 09:56 16,2 C 73 % 1009,4 hPa 0,0 l/m 5,4 km/h (1 Bft) S-SW 202 11,4 C 16,2 C
13.07.2012 10:01 16,1 C 73 % 1009,4 hPa 0,0 l/m 9,0 km/h (2 Bft) SW 225 11,3 C 16,1 C
13.07.2012 10:06 16,2 C 73 % 1009,4 hPa 0,0 l/m 10,1 km/h (2 Bft) S 180 11,4 C 16,2 C
13.07.2012 10:11 16,1 C 74 % 1009,4 hPa 0,0 l/m 4,3 km/h (1 Bft) S-SW 202 11,5 C 16,1 C
13.07.2012 10:16 16,1 C 74 % 1009,3 hPa 0,0 l/m 6,1 km/h (2 Bft) S-SO 157 11,5 C 16,1 C
13.07.2012 10:21 16,1 C 74 % 1009,2 hPa 0,0 l/m 12,2 km/h (2 Bft) SO 135 11,5 C 16,1 C
13.07.2012 10:26 16,3 C 75 % 1009,1 hPa 0,0 l/m 8,6 km/h (2 Bft) S-SO 157 11,9 C 16,3 C
13.07.2012 10:31 16,3 C 75 % 1009,1 hPa 0,0 l/m 6,8 km/h (2 Bft) S 180 11,9 C 16,3 C
13.07.2012 10:36 16,4 C 75 % 1009,0 hPa 0,0 l/m 6,1 km/h (2 Bft) SO 135 12,0 C 16,4 C
13.07.2012 10:41 16,4 C 75 % 1008,9 hPa 0,0 l/m 4,0 km/h (1 Bft) S-SW 202 12,0 C 16,4 C
13.07.2012 10:46 16,6 C 75 % 1009,0 hPa 0,0 l/m 6,5 km/h (2 Bft) W 270 12,1 C 16,6 C
13.07.2012 10:51 16,6 C 74 % 1009,0 hPa 0,0 l/m 8,3 km/h (2 Bft) SO 135 11,9 C 16,6 C
13.07.2012 10:56 16,6 C 73 % 1009,0 hPa 0,0 l/m 13,0 km/h (3 Bft) S-SW 202 11,7 C 16,6 C
13.07.2012 11:01 16,6 C 74 % 1009,0 hPa 0,0 l/m 10,8 km/h (2 Bft) S 180 11,9 C 16,6 C
13.07.2012 11:06 16,6 C 74 % 1008,9 hPa 0,0 l/m 19,4 km/h (3 Bft) S-SW 202 11,9 C 16,6 C
13.07.2012 11:11 16,6 C 74 % 1008,9 hPa 0,0 l/m 5,8 km/h (2 Bft) S 180 11,9 C 16,6 C
13.07.2012 11:16 16,6 C 74 % 1008,8 hPa 0,0 l/m 3,2 km/h (1 Bft) S 180 11,9 C 16,6 C
13.07.2012 11:21 16,8 C 75 % 1008,7 hPa 0,0 l/m 8,6 km/h (2 Bft) S-SW 202 12,3 C 16,8 C
13.07.2012 11:26 16,7 C 76 % 1008,6 hPa 0,0 l/m 9,7 km/h (2 Bft) S-SW 202 12,4 C 16,7 C
13.07.2012 11:31 16,4 C 77 % 1008,7 hPa 0,0 l/m 14,0 km/h (3 Bft) S-SO 157 12,4 C 16,4 C
13.07.2012 11:36 16,1 C 78 % 1008,7 hPa 0,0 l/m 3,6 km/h (1 Bft) S-SW 202 12,3 C 16,1 C
13.07.2012 11:41 15,9 C 79 % 1008,7 hPa 0,0 l/m 9,0 km/h (2 Bft) SO 135 12,3 C 15,9 C
13.07.2012 11:46 15,9 C 80 % 1008,7 hPa 0,5 l/m 6,5 km/h (2 Bft) S-SO 157 12,5 C 15,9 C
13.07.2012 11:51 15,9 C 81 % 1008,7 hPa 0,0 l/m 4,7 km/h (1 Bft) S 180 12,6 C 15,9 C
13.07.2012 11:56 15,8 C 82 % 1008,7 hPa 0,0 l/m 7,6 km/h (2 Bft) S-SO 157 12,7 C 15,8 C
13.07.2012 12:01 15,8 C 82 % 1008,5 hPa 0,0 l/m 10,1 km/h (2 Bft) S-SO 157 12,7 C 15,8 C
13.07.2012 12:06 15,6 C 83 % 1008,4 hPa 0,0 l/m 13,7 km/h (3 Bft) S-SO 157 12,7 C 15,6 C
13.07.2012 12:11 15,5 C 83 % 1008,4 hPa 0,0 l/m 6,5 km/h (2 Bft) S-SW 202 12,6 C 15,5 C
13.07.2012 12:16 15,4 C 84 % 1008,2 hPa 0,0 l/m 7,9 km/h (2 Bft) SO 135 12,7 C 15,4 C
13.07.2012 12:21 15,4 C 84 % 1008,2 hPa 0,5 l/m 3,2 km/h (1 Bft) S-SO 157 12,7 C 15,4 C
13.07.2012 12:26 15,4 C 84 % 1008,0 hPa 0,0 l/m 9,0 km/h (2 Bft) S 180 12,7 C 15,4 C
13.07.2012 12:31 15,3 C 84 % 1008,0 hPa 0,0 l/m 4,3 km/h (1 Bft) SO 135 12,6 C 15,3 C
13.07.2012 12:36 15,3 C 85 % 1008,0 hPa 0,0 l/m 8,3 km/h (2 Bft) S-SO 157 12,8 C 15,3 C
13.07.2012 12:41 15,6 C 86 % 1008,0 hPa 0,5 l/m 7,6 km/h (2 Bft) S-SO 157 13,3 C 15,6 C
13.07.2012 12:46 15,9 C 86 % 1007,9 hPa 0,0 l/m 5,4 km/h (1 Bft) S 180 13,6 C 15,9 C
13.07.2012 12:51 15,9 C 85 % 1007,9 hPa 0,0 l/m 4,0 km/h (1 Bft) S-SO 157 13,4 C 15,9 C
13.07.2012 12:56 15,8 C 85 % 1007,9 hPa 0,0 l/m 8,6 km/h (2 Bft) S 180 13,3 C 15,8 C
13.07.2012 13:01 15,9 C 85 % 1007,8 hPa 0,0 l/m 13,3 km/h (3 Bft) S-SO 157 13,4 C 15,9 C
13.07.2012 13:06 16,2 C 85 % 1007,7 hPa 0,0 l/m 6,5 km/h (2 Bft) S-SO 157 13,7 C 16,2 C
13.07.2012 13:11 16,4 C 85 % 1007,5 hPa 0,0 l/m 7,9 km/h (2 Bft) SO 135 13,9 C 16,4 C
13.07.2012 13:16 16,4 C 85 % 1007,5 hPa 0,0 l/m 14,4 km/h (3 Bft) S 180 13,9 C 16,4 C
13.07.2012 13:21 16,4 C 85 % 1007,3 hPa 0,0 l/m 5,8 km/h (2 Bft) S-SW 202 13,9 C 16,4 C
13.07.2012 13:26 16,5 C 85 % 1007,3 hPa 0,0 l/m 12,6 km/h (3 Bft) SO 135 14,0 C 16,5 C
13.07.2012 13:31 16,4 C 85 % 1007,2 hPa 0,0 l/m 15,1 km/h (3 Bft) SO 135 13,9 C 16,4 C
13.07.2012 13:36 16,5 C 85 % 1007,1 hPa 0,0 l/m 4,0 km/h (1 Bft) O-SO 112 14,0 C 16,5 C
13.07.2012 13:41 16,6 C 85 % 1007,1 hPa 0,0 l/m 11,5 km/h (2 Bft) SO 135 14,1 C 16,6 C
13.07.2012 13:46 16,8 C 85 % 1007,0 hPa 0,0 l/m 7,9 km/h (2 Bft) S-SO 157 14,3 C 16,8 C
13.07.2012 13:51 16,7 C 84 % 1007,0 hPa 0,0 l/m 9,4 km/h (2 Bft) S 180 14,0 C 16,7 C
13.07.2012 13:56 16,6 C 85 % 1006,9 hPa 0,0 l/m 5,4 km/h (1 Bft) SO 135 14,1 C 16,6 C
13.07.2012 14:01 16,5 C 85 % 1006,9 hPa 0,0 l/m 10,4 km/h (2 Bft) S 180 14,0 C 16,5 C
13.07.2012 14:06 16,4 C 86 % 1006,9 hPa 0,0 l/m 9,0 km/h (2 Bft) SO 135 14,1 C 16,4 C
13.07.2012 14:11 16,4 C 86 % 1006,7 hPa 0,0 l/m 9,7 km/h (2 Bft) S 180 14,1 C 16,4 C
13.07.2012 14:16 16,6 C 86 % 1006,5 hPa 0,0 l/m 5,0 km/h (1 Bft) SO 135 14,2 C 16,6 C
13.07.2012 14:21 17,1 C 86 % 1006,4 hPa 0,0 l/m 11,5 km/h (2 Bft) S-SW 202 14,7 C 17,1 C
13.07.2012 14:26 17,4 C 85 % 1006,5 hPa 0,0 l/m 4,3 km/h (1 Bft) S 180 14,8 C 17,4 C
13.07.2012 14:31 17,5 C 84 % 1006,3 hPa 0,0 l/m 5,8 km/h (2 Bft) S 180 14,8 C 17,5 C
13.07.2012 14:36 17,5 C 83 % 1006,3 hPa 0,0 l/m 18,7 km/h (3 Bft) S 180 14,6 C 17,5 C
13.07.2012 14:41 17,5 C 84 % 1006,4 hPa 0,0 l/m 6,1 km/h (2 Bft) SO 135 14,8 C 17,5 C
13.07.2012 14:46 17,6 C 83 % 1006,2 hPa 0,0 l/m 8,6 km/h (2 Bft) SW 225 14,7 C 17,6 C
13.07.2012 14:51 17,8 C 83 % 1006,3 hPa 0,0 l/m 8,6 km/h (2 Bft) SO 135 14,9 C 17,8 C
13.07.2012 14:56 17,9 C 82 % 1006,3 hPa 0,0 l/m 5,0 km/h (1 Bft) S-SW 202 14,8 C 17,9 C
13.07.2012 15:01 17,9 C 81 % 1006,2 hPa 0,0 l/m 5,4 km/h (1 Bft) S-SO 157 14,6 C 17,9 C
13.07.2012 15:06 17,9 C 81 % 1006,1 hPa 0,0 l/m 5,8 km/h (2 Bft) S-SO 157 14,6 C 17,9 C
13.07.2012 15:11 17,8 C 81 % 1006,1 hPa 0,0 l/m 12,2 km/h (2 Bft) SW 225 14,5 C 17,8 C
13.07.2012 15:16 17,5 C 82 % 1005,9 hPa 0,0 l/m 6,1 km/h (2 Bft) W-SW 247 14,4 C 17,5 C
13.07.2012 15:21 17,5 C 82 % 1005,9 hPa 0,0 l/m 13,7 km/h (3 Bft) S-SW 202 14,4 C 17,5 C
13.07.2012 15:26 17,5 C 82 % 1005,8 hPa 0,0 l/m 8,3 km/h (2 Bft) S 180 14,4 C 17,5 C
13.07.2012 15:31 17,5 C 83 % 1005,9 hPa 0,0 l/m 22,3 km/h (4 Bft) S 180 14,6 C 17,5 C
13.07.2012 15:36 17,2 C 84 % 1005,9 hPa 0,5 l/m 18,4 km/h (3 Bft) S-SW 202 14,5 C 17,2 C
13.07.2012 15:41 17,0 C 84 % 1006,1 hPa 0,5 l/m 13,3 km/h (3 Bft) S-SW 202 14,3 C 17,0 C
13.07.2012 15:46 16,9 C 84 % 1005,9 hPa 0,5 l/m 8,3 km/h (2 Bft) S-SO 157 14,2 C 16,9 C
13.07.2012 15:51 16,9 C 84 % 1006,0 hPa 0,0 l/m 2,2 km/h (1 Bft) SW 225 14,2 C 16,9 C
13.07.2012 15:56 17,1 C 84 % 1005,9 hPa 0,0 l/m 6,5 km/h (2 Bft) S-SW 202 14,4 C 17,1 C
13.07.2012 16:01 17,3 C 84 % 1005,7 hPa 0,0 l/m 6,5 km/h (2 Bft) S 180 14,6 C 17,3 C
13.07.2012 16:06 17,5 C 84 % 1005,7 hPa 0,0 l/m 8,6 km/h (2 Bft) S-SW 202 14,8 C 17,5 C
13.07.2012 16:11 17,8 C 84 % 1005,5 hPa 0,0 l/m 4,7 km/h (1 Bft) S-SO 157 15,1 C 17,8 C
13.07.2012 16:16 17,9 C 83 % 1005,8 hPa 0,0 l/m 24,8 km/h (4 Bft) W-SW 247 15,0 C 17,9 C
13.07.2012 16:21 18,3 C 82 % 1005,8 hPa 0,0 l/m 10,8 km/h (2 Bft) S-SW 202 15,2 C 18,3 C
13.07.2012 16:26 18,3 C 80 % 1005,6 hPa 0,0 l/m 4,3 km/h (1 Bft) W 270 14,8 C 18,3 C
13.07.2012 16:31 18,4 C 79 % 1005,7 hPa 0,0 l/m 13,3 km/h (3 Bft) W 270 14,7 C 18,4 C
13.07.2012 16:36 18,3 C 79 % 1005,5 hPa 0,0 l/m 6,5 km/h (2 Bft) W 270 14,6 C 18,3 C
13.07.2012 16:41 18,3 C 79 % 1005,5 hPa 0,0 l/m 4,7 km/h (1 Bft) S 180 14,6 C 18,3 C
13.07.2012 16:46 18,1 C 80 % 1005,5 hPa 0,0 l/m 14,0 km/h (3 Bft) S-SW 202 14,6 C 18,1 C
13.07.2012 16:51 17,6 C 81 % 1005,7 hPa 0,0 l/m 7,6 km/h (2 Bft) S 180 14,3 C 17,6 C
13.07.2012 16:56 16,9 C 83 % 1005,8 hPa 0,5 l/m 6,1 km/h (2 Bft) S-SO 157 14,0 C 16,9 C
13.07.2012 17:01 16,8 C 84 % 1005,7 hPa 0,0 l/m 5,8 km/h (2 Bft) S 180 14,1 C 16,8 C
13.07.2012 17:06 16,8 C 85 % 1005,6 hPa 0,0 l/m 8,3 km/h (2 Bft) S-SW 202 14,3 C 16,8 C
13.07.2012 17:11 16,9 C 85 % 1005,6 hPa 0,0 l/m 7,2 km/h (2 Bft) S 180 14,4 C 16,9 C
13.07.2012 17:16 17,1 C 85 % 1005,6 hPa 0,0 l/m 8,3 km/h (2 Bft) S 180 14,6 C 17,1 C
13.07.2012 17:21 17,3 C 84 % 1005,6 hPa 0,0 l/m 9,4 km/h (2 Bft) S-SW 202 14,6 C 17,3 C
13.07.2012 17:26 17,2 C 84 % 1005,5 hPa 0,0 l/m 4,0 km/h (1 Bft) S-SW 202 14,5 C 17,2 C
13.07.2012 17:31 17,1 C 85 % 1005,4 hPa 0,5 l/m 0,0 km/h (0 Bft) S 180 14,6 C 17,1 C
13.07.2012 17:36 16,9 C 85 % 1005,3 hPa 0,0 l/m 4,0 km/h (1 Bft) SO 135 14,4 C 16,9 C
13.07.2012 17:41 16,9 C 85 % 1005,1 hPa 0,5 l/m 2,5 km/h (1 Bft) S-SO 157 14,4 C 16,9 C
13.07.2012 17:46 16,9 C 85 % 1005,0 hPa 0,0 l/m 1,8 km/h (1 Bft) S-SO 157 14,4 C 16,9 C
13.07.2012 17:51 16,9 C 86 % 1005,1 hPa 0,0 l/m 1,4 km/h (1 Bft) W-SW 247 14,5 C 16,9 C
13.07.2012 17:56 17,2 C 86 % 1005,1 hPa 0,0 l/m 0,0 km/h (0 Bft) SW 225 14,8 C 17,2 C
13.07.2012 18:01 17,6 C 86 % 1004,9 hPa 0,0 l/m 9,4 km/h (2 Bft) S-SW 202 15,2 C 17,6 C
13.07.2012 18:06 17,9 C 85 % 1004,8 hPa 0,0 l/m 3,2 km/h (1 Bft) W-SW 247 15,3 C 17,9 C
13.07.2012 18:11 18,2 C 84 % 1004,9 hPa 0,0 l/m 12,2 km/h (2 Bft) W-SW 247 15,4 C 18,2 C
13.07.2012 18:16 18,1 C 81 % 1005,1 hPa 0,0 l/m 10,8 km/h (2 Bft) SW 225 14,8 C 18,1 C
13.07.2012 18:21 17,9 C 80 % 1005,0 hPa 0,0 l/m 18,7 km/h (3 Bft) W-SW 247 14,4 C 17,9 C
13.07.2012 18:26 17,9 C 80 % 1005,0 hPa 0,0 l/m 10,8 km/h (2 Bft) SW 225 14,4 C 17,9 C
13.07.2012 18:31 17,9 C 81 % 1005,1 hPa 0,0 l/m 7,2 km/h (2 Bft) W-SW 247 14,6 C 17,9 C
13.07.2012 18:36 17,8 C 81 % 1004,9 hPa 0,0 l/m 7,6 km/h (2 Bft) S 180 14,5 C 17,8 C
13.07.2012 18:41 17,6 C 82 % 1004,8 hPa 0,0 l/m 7,2 km/h (2 Bft) W-SW 247 14,5 C 17,6 C
13.07.2012 18:46 17,4 C 82 % 1005,0 hPa 0,0 l/m 6,5 km/h (2 Bft) S-SW 202 14,3 C 17,4 C
13.07.2012 18:51 17,3 C 82 % 1005,1 hPa 0,0 l/m 4,7 km/h (1 Bft) S-SW 202 14,2 C 17,3 C
13.07.2012 18:56 17,3 C 82 % 1005,0 hPa 0,0 l/m 5,4 km/h (1 Bft) S 180 14,2 C 17,3 C
13.07.2012 19:01 17,1 C 83 % 1005,1 hPa 0,0 l/m 5,8 km/h (2 Bft) SW 225 14,2 C 17,1 C
13.07.2012 19:06 17,0 C 83 % 1005,0 hPa 0,0 l/m 8,3 km/h (2 Bft) S 180 14,1 C 17,0 C
13.07.2012 19:11 16,9 C 83 % 1005,0 hPa 0,0 l/m 6,1 km/h (2 Bft) SW 225 14,0 C 16,9 C
13.07.2012 19:16 16,6 C 84 % 1005,2 hPa 0,0 l/m 9,0 km/h (2 Bft) SW 225 13,9 C 16,6 C
13.07.2012 19:21 16,4 C 85 % 1005,2 hPa 0,0 l/m 10,1 km/h (2 Bft) W-SW 247 13,9 C 16,4 C
13.07.2012 19:26 16,2 C 85 % 1005,2 hPa 0,0 l/m 10,8 km/h (2 Bft) S-SW 202 13,7 C 16,2 C
13.07.2012 19:31 15,9 C 86 % 1005,1 hPa 0,5 l/m 8,3 km/h (2 Bft) W-SW 247 13,6 C 15,9 C
13.07.2012 19:36 15,9 C 86 % 1005,3 hPa 0,0 l/m 6,5 km/h (2 Bft) S 180 13,6 C 15,9 C
13.07.2012 19:41 15,8 C 87 % 1005,3 hPa 0,0 l/m 3,2 km/h (1 Bft) S-SW 202 13,6 C 15,8 C
13.07.2012 19:46 15,7 C 87 % 1005,2 hPa 0,0 l/m 6,8 km/h (2 Bft) S-SW 202 13,5 C 15,7 C
13.07.2012 19:51 15,8 C 87 % 1005,0 hPa 0,0 l/m 6,8 km/h (2 Bft) W-SW 247 13,6 C 15,8 C
13.07.2012 19:56 15,8 C 87 % 1004,8 hPa 0,0 l/m 0,0 km/h (0 Bft) S-SW 202 13,6 C 15,8 C
13.07.2012 20:01 15,8 C 87 % 1004,7 hPa 0,5 l/m 6,1 km/h (2 Bft) SW 225 13,6 C 15,8 C
13.07.2012 20:06 15,8 C 87 % 1005,0 hPa 0,0 l/m 4,7 km/h (1 Bft) S-SO 157 13,6 C 15,8 C
13.07.2012 20:11 15,8 C 87 % 1004,9 hPa 0,0 l/m 2,9 km/h (1 Bft) S-SO 157 13,6 C 15,8 C
13.07.2012 20:16 15,8 C 87 % 1004,8 hPa 0,0 l/m 3,6 km/h (1 Bft) SW 225 13,6 C 15,8 C
13.07.2012 20:21 15,8 C 87 % 1004,6 hPa 0,0 l/m 3,2 km/h (1 Bft) SW 225 13,6 C 15,8 C
13.07.2012 20:26 15,6 C 87 % 1004,7 hPa 0,0 l/m 3,6 km/h (1 Bft) W 270 13,4 C 15,6 C
13.07.2012 20:31 15,7 C 87 % 1004,6 hPa 0,0 l/m 0,0 km/h (0 Bft) SW 225 13,5 C 15,7 C
13.07.2012 20:36 15,6 C 87 % 1004,5 hPa 0,0 l/m 3,2 km/h (1 Bft) S-SO 157 13,4 C 15,6 C
13.07.2012 20:41 15,7 C 87 % 1004,5 hPa 0,0 l/m 2,2 km/h (1 Bft) S 180 13,5 C 15,7 C
13.07.2012 20:46 15,8 C 87 % 1004,6 hPa 0,0 l/m 8,6 km/h (2 Bft) SW 225 13,6 C 15,8 C
13.07.2012 20:51 15,8 C 87 % 1004,5 hPa 0,0 l/m 0,0 km/h (0 Bft) SO 135 13,6 C 15,8 C
13.07.2012 20:56 15,8 C 87 % 1004,4 hPa 0,0 l/m 2,2 km/h (1 Bft) S-SO 157 13,6 C 15,8 C
13.07.2012 21:01 15,7 C 87 % 1004,5 hPa 0,0 l/m 1,8 km/h (1 Bft) S 180 13,5 C 15,7 C
13.07.2012 21:06 15,6 C 87 % 1004,5 hPa 0,0 l/m 1,1 km/h (1 Bft) S 180 13,4 C 15,6 C
13.07.2012 21:11 15,6 C 87 % 1004,5 hPa 0,0 l/m 1,4 km/h (1 Bft) S 180 13,4 C 15,6 C
13.07.2012 21:16 15,6 C 87 % 1004,4 hPa 0,0 l/m 1,4 km/h (1 Bft) S 180 13,4 C 15,6 C
13.07.2012 21:21 15,6 C 87 % 1004,5 hPa 0,0 l/m 3,6 km/h (1 Bft) SO 135 13,4 C 15,6 C
13.07.2012 21:26 15,6 C 87 % 1004,4 hPa 0,0 l/m 2,9 km/h (1 Bft) S-SO 157 13,4 C 15,6 C
13.07.2012 21:31 15,5 C 88 % 1004,5 hPa 0,0 l/m 1,8 km/h (1 Bft) S-SO 157 13,5 C 15,5 C
13.07.2012 21:36 15,5 C 88 % 1004,4 hPa 0,0 l/m 0,0 km/h (0 Bft) S-SO 157 13,5 C 15,5 C
13.07.2012 21:41 15,5 C 88 % 1004,3 hPa 0,0 l/m 2,5 km/h (1 Bft) S-SO 157 13,5 C 15,5 C
13.07.2012 21:46 15,4 C 89 % 1004,3 hPa 0,0 l/m 0,0 km/h (0 Bft) S-SO 157 13,6 C 15,4 C
13.07.2012 21:51 15,4 C 88 % 1004,3 hPa 0,0 l/m 2,2 km/h (1 Bft) S-SO 157 13,4 C 15,4 C
13.07.2012 21:56 15,4 C 89 % 1004,4 hPa 0,0 l/m 1,8 km/h (1 Bft) S-SO 157 13,6 C 15,4 C
13.07.2012 22:01 15,3 C 89 % 1004,4 hPa 0,0 l/m 2,5 km/h (1 Bft) S-SO 157 13,5 C 15,3 C
13.07.2012 22:06 15,3 C 89 % 1004,3 hPa 0,0 l/m 2,5 km/h (1 Bft) S-SO 157 13,5 C 15,3 C
13.07.2012 22:11 15,3 C 89 % 1004,2 hPa 0,0 l/m 2,5 km/h (1 Bft) SO 135 13,5 C 15,3 C
13.07.2012 22:16 15,2 C 89 % 1004,2 hPa 0,0 l/m 1,8 km/h (1 Bft) SO 135 13,4 C 15,2 C
13.07.2012 22:21 15,1 C 89 % 1004,0 hPa 0,0 l/m 4,0 km/h (1 Bft) SO 135 13,3 C 15,1 C
13.07.2012 22:26 14,9 C 89 % 1004,0 hPa 0,0 l/m 2,5 km/h (1 Bft) SO 135 13,1 C 14,9 C
13.07.2012 22:31 14,9 C 89 % 1004,0 hPa 0,0 l/m 4,0 km/h (1 Bft) SO 135 13,1 C 14,9 C
13.07.2012 22:36 14,9 C 89 % 1004,0 hPa 0,0 l/m 2,5 km/h (1 Bft) S-SO 157 13,1 C 14,9 C
13.07.2012 22:41 14,9 C 90 % 1004,0 hPa 0,0 l/m 1,4 km/h (1 Bft) S-SO 157 13,3 C 14,9 C
13.07.2012 22:46 14,9 C 89 % 1004,1 hPa 0,0 l/m 0,0 km/h (0 Bft) S-SO 157 13,1 C 14,9 C
13.07.2012 22:51 14,8 C 89 % 1004,0 hPa 0,0 l/m 0,0 km/h (0 Bft) S-SO 157 13,0 C 14,8 C
13.07.2012 22:56 14,6 C 89 % 1004,0 hPa 0,0 l/m 0,0 km/h (0 Bft) S-SO 157 12,8 C 14,6 C
13.07.2012 23:01 14,5 C 90 % 1004,0 hPa 0,0 l/m 0,0 km/h (0 Bft) S-SO 157 12,9 C 14,5 C
13.07.2012 23:06 14,5 C 90 % 1004,1 hPa 0,0 l/m 4,0 km/h (1 Bft) S-SO 157 12,9 C 14,5 C
13.07.2012 23:11 14,5 C 90 % 1004,1 hPa 0,0 l/m 1,1 km/h (1 Bft) S-SO 157 12,9 C 14,5 C
13.07.2012 23:16 14,5 C 90 % 1004,1 hPa 0,0 l/m 2,9 km/h (1 Bft) S-SO 157 12,9 C 14,5 C
13.07.2012 23:21 14,6 C 90 % 1004,0 hPa 0,0 l/m 2,9 km/h (1 Bft) S-SO 157 13,0 C 14,6 C
13.07.2012 23:26 14,7 C 90 % 1003,9 hPa 0,0 l/m 2,5 km/h (1 Bft) S-SO 157 13,1 C 14,7 C
13.07.2012 23:31 14,7 C 90 % 1003,9 hPa 0,0 l/m 2,5 km/h (1 Bft) S-SO 157 13,1 C 14,7 C
13.07.2012 23:36 14,7 C 90 % 1003,7 hPa 0,0 l/m 3,6 km/h (1 Bft) SO 135 13,1 C 14,7 C
13.07.2012 23:41 14,6 C 90 % 1003,7 hPa 0,0 l/m 1,4 km/h (1 Bft) SO 135 13,0 C 14,6 C
13.07.2012 23:46 14,5 C 90 % 1003,6 hPa 0,0 l/m 0,0 km/h (0 Bft) SO 135 12,9 C 14,5 C
13.07.2012 23:51 14,4 C 90 % 1003,7 hPa 0,0 l/m 0,0 km/h (0 Bft) S-SO 157 12,8 C 14,4 C
13.07.2012 23:56 14,3 C 90 % 1003,6 hPa 0,0 l/m 1,8 km/h (1 Bft) SO 135 12,7 C 14,3 C
_ Min-Zeit 04:56 09:01 23:46 - 01:56 - - 04:56 04:56
Minimum _ 10,3 C 73 % 1003,6 hPa - 0,0 km/h (0 Bft) - - 8,4 C 10,3 C
_ Max-Zeit 16:31 22:41 00:01 11:46 16:16 - - 18:11 16:31
Maximum _ 18,4 C 90 % 1013,9 hPa 0,5 l/m 24,8 km/h
W-SW (4 Bft)
- - 15,4 C 18,4 C
Durchschnitt _ 14,7 C 83 % 1008,4 hPa #5,7 l/m 5,7 km/h (1 Bft) S-SO - 11,9 C 14,7 C
(c) by David Heller